Time;durP1;ratioP1;P1;durP2;ratioP2;P2;SDS_P1;SDS_P2;PMS_P1;PMS_P2;Temp;Humidity;BMP_temperature;BMP_pressure;BME280_temperature;BME280_humidity;BME280_pressure;Samples;Min_cycle;Max_cycle;Signal;HPM_P1;HPM_P2
2023/06/26 00:01:29;;;;;;;10.82;6.63;;;23.30;99.90;;;;;;5084647;28;20122;-76
2023/06/26 00:03:55;;;;;;;9.05;7.13;;;23.10;99.90;;;;;;5084893;28;20040;-75
2023/06/26 00:06:24;;;;;;;9.35;6.18;;;23.40;99.90;;;;;;5083631;28;20485;-75
2023/06/26 00:08:50;;;;;;;8.38;5.95;;;23.00;99.90;;;;;;5076425;28;20051;-75
2023/06/26 00:11:16;;;;;;;7.25;6.20;;;22.90;99.90;;;;;;5080356;28;20044;-76
2023/06/26 00:13:41;;;;;;;7.78;6.60;;;23.80;99.90;;;;;;5078719;28;20409;-76
2023/06/26 00:16:07;;;;;;;8.85;6.72;;;23.10;99.90;;;;;;5083303;28;20040;-75
2023/06/26 00:18:33;;;;;;;8.75;7.00;;;23.00;99.90;;;;;;5088561;28;20097;-75
2023/06/26 00:20:58;;;;;;;10.40;6.88;;;22.90;99.90;;;;;;5075031;28;20154;-75
2023/06/26 00:23:24;;;;;;;9.90;7.82;;;22.80;99.90;;;;;;5081500;28;20815;-75
2023/06/26 00:25:49;;;;;;;8.30;7.03;;;23.60;99.90;;;;;;5080514;28;20414;-76
2023/06/26 00:28:15;;;;;;;10.70;6.68;;;23.20;99.90;;;;;;5064316;28;20062;-75
2023/06/26 00:30:40;;;;;;;10.13;6.78;;;24.40;99.90;;;;;;5054861;28;20047;-75
2023/06/26 00:33:06;;;;;;;8.80;6.30;;;22.90;99.90;;;;;;5082890;28;20709;-75
2023/06/26 00:35:31;;;;;;;10.93;7.18;;;23.70;99.90;;;;;;5092486;28;20512;-75
2023/06/26 00:37:57;;;;;;;8.73;6.75;;;22.80;99.90;;;;;;5086466;28;20485;-75
2023/06/26 00:40:22;;;;;;;9.27;7.15;;;25.20;99.90;;;;;;5091164;28;20050;-75
2023/06/26 00:42:48;;;;;;;8.25;6.53;;;23.00;99.90;;;;;;5086798;28;20059;-75
2023/06/26 00:45:14;;;;;;;10.38;8.00;;;22.70;99.90;;;;;;5083077;28;20102;-76
2023/06/26 00:47:39;;;;;;;9.68;7.75;;;24.00;99.90;;;;;;5078623;28;20043;-76
2023/06/26 00:50:06;;;;;;;11.63;7.78;;;22.90;99.90;;;;;;5083807;28;20055;-75
2023/06/26 00:52:32;;;;;;;12.40;7.82;;;22.90;99.90;;;;;;5081548;28;20047;-75
2023/06/26 00:54:58;;;;;;;9.90;7.53;;;23.00;99.90;;;;;;5085019;28;20036;-75
2023/06/26 00:57:24;;;;;;;10.02;7.13;;;22.80;99.90;;;;;;5092214;28;20525;-76
2023/06/26 00:59:50;;;;;;;9.48;7.68;;;22.90;99.90;;;;;;5070414;28;20051;-76
2023/06/26 01:02:20;;;;;;;10.93;6.88;;;22.90;99.90;;;;;;5081996;28;20512;-75
2023/06/26 01:04:47;;;;;;;9.98;8.23;;;23.10;99.90;;;;;;5072698;28;20450;-75
2023/06/26 01:07:15;;;;;;;11.38;8.68;;;23.40;99.90;;;;;;5082594;28;20379;-75
2023/06/26 01:09:41;;;;;;;9.73;7.75;;;22.90;99.90;;;;;;5084992;28;20631;-75
2023/06/26 01:12:06;;;;;;;10.10;7.97;;;22.50;99.90;;;;;;5077204;28;20951;-75
2023/06/26 01:14:35;;;;;;;11.00;7.95;;;22.70;99.90;;;;;;5085849;28;20074;-75
2023/06/26 01:17:01;;;;;;;8.85;7.45;;;24.50;99.90;;;;;;5072894;28;20059;-75
2023/06/26 01:19:29;;;;;;;9.27;8.10;;;22.80;99.90;;;;;;5084956;28;20052;-75
2023/06/26 01:22:14;;;;;;;9.60;8.00;;;22.60;99.90;;;;;;5085252;28;20051;-75
2023/06/26 01:24:48;;;;;;;10.27;8.43;;;22.60;99.90;;;;;;5081671;28;20043;-75
2023/06/26 01:27:14;;;;;;;12.68;8.75;;;24.40;99.90;;;;;;5085120;28;20559;-75
2023/06/26 01:29:41;;;;;;;9.73;7.88;;;24.80;99.90;;;;;;5064238;28;20048;-75
2023/06/26 01:32:07;;;;;;;10.90;8.10;;;23.90;99.90;;;;;;5080512;28;20157;-75
2023/06/26 01:34:33;;;;;;;11.20;8.65;;;23.00;99.90;;;;;;5075129;28;20105;-75
2023/06/26 01:36:59;;;;;;;10.50;8.57;;;22.70;99.90;;;;;;5087134;28;20032;-75
2023/06/26 01:39:24;;;;;;;10.85;9.15;;;24.30;99.90;;;;;;5079059;28;20048;-75
2023/06/26 01:41:50;;;;;;;11.20;8.90;;;22.70;99.90;;;;;;5087567;28;20043;-75
2023/06/26 01:44:27;;;;;;;10.38;8.82;;;22.30;99.90;;;;;;5083088;28;20090;-75
2023/06/26 01:47:01;;;;;;;12.88;8.60;;;22.40;99.90;;;;;;5083529;28;20036;-75
2023/06/26 01:49:56;;;;;;;11.45;9.43;;;22.40;99.90;;;;;;5086851;28;20050;-75
2023/06/26 01:52:41;;;;;;;11.10;8.55;;;22.80;99.90;;;;;;5075267;28;20059;-75
2023/06/26 01:55:26;;;;;;;11.05;8.82;;;22.20;99.90;;;;;;5081991;28;20675;-75
2023/06/26 01:57:55;;;;;;;10.43;8.27;;;23.50;99.90;;;;;;5051077;28;20079;-75
2023/06/26 02:00:23;;;;;;;12.23;8.82;;;22.00;99.90;;;;;;5044148;28;20079;-75
2023/06/26 02:02:48;;;;;;;12.15;9.93;;;22.20;99.90;;;;;;5073687;28;20048;-75
2023/06/26 02:05:14;;;;;;;9.75;7.85;;;24.50;99.90;;;;;;5075527;28;20043;-75
2023/06/26 02:07:40;;;;;;;9.75;8.73;;;21.80;99.90;;;;;;5073164;28;20058;-75
2023/06/26 02:10:06;;;;;;;14.10;9.25;;;22.00;99.90;;;;;;5082315;28;20040;-75
2023/06/26 02:12:32;;;;;;;10.05;8.18;;;21.90;99.90;;;;;;5079267;28;20047;-75
2023/06/26 02:14:57;;;;;;;10.32;8.07;;;21.90;99.90;;;;;;5081552;28;20043;-75
2023/06/26 02:17:23;;;;;;;10.13;8.18;;;22.00;99.90;;;;;;5081019;28;20043;-75
2023/06/26 02:19:49;;;;;;;9.90;8.35;;;22.40;99.90;;;;;;5086146;28;20040;-75
2023/06/26 02:22:15;;;;;;;10.88;8.25;;;21.90;99.90;;;;;;5079469;28;20070;-75
2023/06/26 02:24:41;;;;;;;12.27;8.57;;;21.70;99.90;;;;;;5082717;28;20040;-75
2023/06/26 02:27:07;;;;;;;8.77;7.50;;;21.70;99.90;;;;;;5082474;28;20580;-75
2023/06/26 02:29:33;;;;;;;12.88;8.07;;;23.00;99.90;;;;;;5078993;28;20051;-75
2023/06/26 02:31:58;;;;;;;11.07;7.90;;;21.60;99.90;;;;;;5085810;28;20071;-75
2023/06/26 02:34:24;;;;;;;9.82;7.85;;;21.90;99.90;;;;;;5086013;28;20097;-75
2023/06/26 02:36:49;;;;;;;11.20;7.93;;;21.80;99.90;;;;;;5085765;28;20072;-75
2023/06/26 02:39:15;;;;;;;10.27;7.90;;;21.70;99.90;;;;;;5085954;28;20184;-75
2023/06/26 02:41:41;;;;;;;10.48;8.18;;;21.90;99.90;;;;;;5082816;28;20048;-75
2023/06/26 02:44:07;;;;;;;9.80;7.65;;;21.80;99.90;;;;;;5078332;28;20044;-75
2023/06/26 02:46:33;;;;;;;11.07;7.70;;;23.10;99.90;;;;;;5079038;28;20765;-75
2023/06/26 02:48:59;;;;;;;9.63;8.27;;;21.90;99.90;;;;;;5072778;28;20192;-75
2023/06/26 02:51:24;;;;;;;10.40;8.00;;;21.90;99.90;;;;;;5075686;28;20074;-75
2023/06/26 02:53:50;;;;;;;22.80;8.73;;;21.90;99.90;;;;;;5075781;28;20413;-75
2023/06/26 02:56:15;;;;;;;11.85;8.75;;;21.60;99.90;;;;;;5085880;28;20780;-75
2023/06/26 02:58:41;;;;;;;11.00;8.45;;;21.80;99.90;;;;;;5083322;28;20044;-75
2023/06/26 03:01:07;;;;;;;12.50;9.73;;;22.70;99.90;;;;;;5072463;28;20055;-75
2023/06/26 03:03:40;;;;;;;10.23;8.32;;;21.90;99.90;;;;;;5083937;28;20084;-75
2023/06/26 03:06:08;;;;;;;10.98;9.38;;;21.70;99.90;;;;;;5085572;28;20482;-75
2023/06/26 03:08:36;;;;;;;11.88;8.55;;;21.60;99.90;;;;;;5074457;28;20082;-75
2023/06/26 03:11:02;;;;;;;11.95;9.25;;;21.70;99.90;;;;;;5085634;28;20486;-75
2023/06/26 03:13:28;;;;;;;9.65;7.95;;;21.30;99.90;;;;;;5081769;28;20054;-75
2023/06/26 03:15:53;;;;;;;13.18;10.10;;;21.40;99.90;;;;;;5081781;28;20566;-75
2023/06/26 03:18:19;;;;;;;13.32;10.00;;;23.60;99.90;;;;;;5081383;28;20047;-75
2023/06/26 03:20:45;;;;;;;10.90;9.05;;;21.10;99.90;;;;;;5082196;28;20051;-75
2023/06/26 03:23:10;;;;;;;10.30;7.50;;;21.20;99.90;;;;;;5085817;28;20080;-75
2023/06/26 03:25:36;;;;;;;9.70;7.60;;;21.30;99.90;;;;;;5076695;28;20078;-75
2023/06/26 03:28:02;;;;;;;8.85;7.72;;;21.50;99.90;;;;;;5089287;28;20032;-75
2023/06/26 03:30:27;;;;;;;11.70;7.90;;;21.50;99.90;;;;;;5085038;28;20527;-75
2023/06/26 03:32:53;;;;;;;12.40;9.05;;;21.40;99.90;;;;;;5075385;28;20542;-75
2023/06/26 03:35:19;;;;;;;11.02;8.13;;;21.50;99.90;;;;;;5086948;28;20868;-75
2023/06/26 03:37:44;;;;;;;12.50;8.38;;;21.60;99.90;;;;;;5083633;28;20040;-75
2023/06/26 03:40:10;;;;;;;9.35;7.00;;;21.30;99.90;;;;;;5082431;28;20047;-75
2023/06/26 03:42:35;;;;;;;10.85;7.18;;;21.50;99.90;;;;;;5085455;28;20401;-74
2023/06/26 03:45:01;;;;;;;10.85;6.85;;;21.40;99.90;;;;;;5085674;28;20040;-74
2023/06/26 03:47:27;;;;;;;9.02;6.57;;;21.60;99.90;;;;;;5094607;28;20040;-75
2023/06/26 03:49:52;;;;;;;10.52;7.28;;;23.00;99.90;;;;;;5089796;28;20028;-74
2023/06/26 03:52:18;;;;;;;11.07;7.07;;;21.30;99.90;;;;;;5070808;28;20108;-76
2023/06/26 03:54:43;;;;;;;9.77;6.50;;;21.20;99.90;;;;;;5080805;28;20799;-74
2023/06/26 03:57:09;;;;;;;9.00;6.18;;;21.50;99.90;;;;;;5089658;28;20079;-74
2023/06/26 03:59:35;;;;;;;8.23;6.00;;;21.40;99.90;;;;;;5072815;28;20076;-75
2023/06/26 04:02:01;;;;;;;12.90;6.70;;;21.40;99.90;;;;;;5057221;28;20079;-75
2023/06/26 04:04:27;;;;;;;12.25;6.68;;;22.00;99.90;;;;;;5073739;28;20441;-74
2023/06/26 04:06:53;;;;;;;9.88;6.20;;;21.60;99.90;;;;;;5081546;28;20104;-76
2023/06/26 04:09:19;;;;;;;8.23;5.38;;;21.30;99.90;;;;;;5074727;28;20084;-75
2023/06/26 04:11:45;;;;;;;9.90;6.30;;;21.40;99.90;;;;;;5077606;28;20576;-75
2023/06/26 04:14:10;;;;;;;10.38;6.63;;;21.40;99.90;;;;;;5083559;28;20051;-75
2023/06/26 04:16:36;;;;;;;9.02;5.78;;;21.60;99.90;;;;;;5083775;28;20044;-74
2023/06/26 04:19:02;;;;;;;12.13;6.40;;;21.70;99.90;;;;;;5088937;28;20043;-74
2023/06/26 04:21:28;;;;;;;9.18;5.95;;;22.20;99.90;;;;;;5089079;28;20043;-74
2023/06/26 04:23:53;;;;;;;12.50;6.20;;;23.30;99.90;;;;;;5084688;28;20546;-75
2023/06/26 04:26:19;;;;;;;10.25;6.30;;;21.50;99.90;;;;;;5072961;28;20090;-74
2023/06/26 04:28:45;;;;;;;13.88;6.60;;;21.80;99.90;;;;;;5088999;28;20169;-75
2023/06/26 04:31:10;;;;;;;10.38;5.43;;;23.30;99.90;;;;;;5070482;28;20047;-75
2023/06/26 04:33:37;;;;;;;13.45;5.90;;;21.50;99.90;;;;;;5079585;28;20119;-74
2023/06/26 04:36:06;;;;;;;10.95;5.65;;;21.40;99.90;;;;;;5079315;28;20049;-74
2023/06/26 04:38:32;;;;;;;12.30;6.25;;;21.50;99.90;;;;;;5070613;28;20123;-74
2023/06/26 04:40:58;;;;;;;12.43;6.35;;;21.60;99.90;;;;;;5065105;28;20050;-74
2023/06/26 04:43:23;;;;;;;14.20;7.05;;;21.30;99.90;;;;;;5085013;28;20440;-75
2023/06/26 04:45:49;;;;;;;14.70;6.43;;;21.50;99.90;;;;;;5082769;28;20488;-75
2023/06/26 04:48:14;;;;;;;14.32;7.88;;;21.10;99.90;;;;;;5073594;28;20067;-75
2023/06/26 04:50:40;;;;;;;15.75;6.85;;;22.30;99.90;;;;;;5082701;28;20827;-74
2023/06/26 04:53:06;;;;;;;14.52;7.72;;;21.40;99.90;;;;;;5066516;28;20048;-74
2023/06/26 04:55:31;;;;;;;16.60;7.22;;;21.30;99.90;;;;;;5072950;28;20051;-74
2023/06/26 04:57:57;;;;;;;15.27;6.90;;;21.20;99.90;;;;;;5069215;28;20455;-74
2023/06/26 05:00:24;;;;;;;11.32;7.25;;;21.30;99.90;;;;;;5075577;28;20040;-75
2023/06/26 05:02:58;;;;;;;15.48;7.63;;;21.40;99.90;;;;;;5081688;28;20044;-74
2023/06/26 05:05:24;;;;;;;19.95;6.93;;;21.10;99.90;;;;;;5083300;28;20126;-74
2023/06/26 05:07:53;;;;;;;14.77;7.53;;;21.10;99.90;;;;;;5060885;28;20444;-74
2023/06/26 05:10:19;;;;;;;13.98;6.78;;;21.20;99.90;;;;;;5085591;28;20054;-74
2023/06/26 05:12:44;;;;;;;13.35;6.93;;;20.90;99.90;;;;;;5071481;28;20047;-77
2023/06/26 05:15:10;;;;;;;11.13;6.20;;;21.00;99.90;;;;;;5076312;28;20044;-75
2023/06/26 05:17:35;;;;;;;14.85;6.03;;;21.80;99.90;;;;;;5088188;28;20039;-74
2023/06/26 05:20:01;;;;;;;11.25;5.35;;;21.00;99.90;;;;;;5059946;28;20040;-74
2023/06/26 05:22:27;;;;;;;15.27;5.93;;;21.00;99.90;;;;;;5087686;28;20047;-74
2023/06/26 05:24:55;;;;;;;15.52;5.75;;;21.20;99.90;;;;;;5078384;28;20044;-75
2023/06/26 05:27:21;;;;;;;9.80;5.70;;;21.00;99.90;;;;;;5077858;28;20040;-74
2023/06/26 05:29:48;;;;;;;8.88;4.03;;;20.90;99.90;;;;;;5087421;28;20048;-73
2023/06/26 05:32:17;;;;;;;8.88;3.55;;;21.30;99.90;;;;;;5087643;28;20056;-74
2023/06/26 05:34:48;;;;;;;12.63;3.40;;;21.20;99.90;;;;;;5072984;28;20036;-74
2023/06/26 05:37:21;;;;;;;11.98;3.28;;;21.50;99.90;;;;;;5087537;28;20112;-74
2023/06/26 05:39:47;;;;;;;7.18;2.40;;;21.60;99.90;;;;;;5077222;28;20036;-74
2023/06/26 05:42:14;;;;;;;9.93;3.00;;;22.20;99.90;;;;;;5093881;28;20377;-74
2023/06/26 05:44:39;;;;;;;7.38;2.50;;;22.20;99.90;;;;;;5093512;28;20043;-74
2023/06/26 05:47:05;;;;;;;7.03;2.55;;;22.70;99.90;;;;;;5070913;28;20753;-74
2023/06/26 05:49:31;;;;;;;10.68;2.47;;;22.70;99.90;;;;;;5065443;28;20040;-74
2023/06/26 05:51:56;;;;;;;6.93;2.63;;;22.80;99.90;;;;;;5080491;28;20044;-74
2023/06/26 05:54:24;;;;;;;10.95;2.25;;;23.20;99.90;;;;;;5064033;28;20108;-74
2023/06/26 05:56:55;;;;;;;5.88;2.55;;;23.10;99.90;;;;;;5084412;28;20513;-74
2023/06/26 05:59:22;;;;;;;6.22;1.95;;;23.30;99.90;;;;;;5063067;28;20051;-74
2023/06/26 06:01:48;;;;;;;10.60;2.67;;;23.20;99.90;;;;;;5066873;28;20755;-74
2023/06/26 06:04:13;;;;;;;6.40;1.55;;;23.90;99.90;;;;;;5069511;28;20044;-75
2023/06/26 06:06:39;;;;;;;5.75;2.10;;;24.50;99.90;;;;;;5078266;28;20509;-75
2023/06/26 06:09:04;;;;;;;8.30;2.65;;;25.50;99.90;;;;;;5077476;28;20793;-74
2023/06/26 06:11:30;;;;;;;7.75;1.58;;;25.70;99.90;;;;;;5066296;28;20060;-74
2023/06/26 06:13:56;;;;;;;5.80;1.77;;;28.10;99.90;;;;;;5090031;28;20032;-74
2023/06/26 06:16:21;;;;;;;9.23;2.15;;;27.10;99.90;;;;;;5090552;28;20488;-74
2023/06/26 06:18:47;;;;;;;5.05;1.42;;;27.00;99.90;;;;;;5072363;28;20047;-75
2023/06/26 06:21:12;;;;;;;5.03;1.48;;;26.80;99.90;;;;;;5078404;28;20044;-75
2023/06/26 06:23:38;;;;;;;6.40;1.83;;;28.50;99.90;;;;;;5070669;28;20040;-74
2023/06/26 06:26:03;;;;;;;7.75;1.65;;;26.80;99.90;;;;;;5086853;28;20040;-75
2023/06/26 06:28:29;;;;;;;6.13;1.08;;;26.70;99.90;;;;;;5084545;28;20047;-74
2023/06/26 06:30:54;;;;;;;6.85;1.30;;;27.00;99.90;;;;;;5089018;28;20047;-74
2023/06/26 06:33:20;;;;;;;4.80;1.63;;;27.20;99.90;;;;;;5071410;28;20061;-71
2023/06/26 06:35:46;;;;;;;5.70;1.45;;;27.20;99.90;;;;;;5067621;28;20044;-73
2023/06/26 06:38:12;;;;;;;4.55;1.23;;;27.10;99.90;;;;;;5076693;28;20128;-72
2023/06/26 06:40:37;;;;;;;5.15;1.30;;;26.90;99.90;;;;;;5086432;28;20046;-72
2023/06/26 06:43:03;;;;;;;6.97;1.27;;;26.30;99.90;;;;;;5071493;28;20637;-71
2023/06/26 06:45:28;;;;;;;7.32;1.20;;;26.20;99.90;;;;;;5078253;28;20039;-72
2023/06/26 06:47:54;;;;;;;6.45;1.25;;;27.10;99.90;;;;;;5067555;28;20077;-73
2023/06/26 06:50:20;;;;;;;5.07;1.02;;;26.70;99.90;;;;;;5076268;28;20044;-75
2023/06/26 06:52:45;;;;;;;4.00;1.35;;;25.00;99.90;;;;;;5068266;28;20048;-77
2023/06/26 06:55:11;;;;;;;3.95;1.00;;;24.90;99.90;;;;;;5082204;28;20056;-74
2023/06/26 06:57:38;;;;;;;4.95;0.88;;;24.50;99.90;;;;;;5073851;28;21417;-73
2023/06/26 07:00:09;;;;;;;8.38;1.25;;;25.00;99.90;;;;;;5072373;28;20048;-73
2023/06/26 07:02:39;;;;;;;3.47;1.27;;;24.00;99.90;;;;;;5076311;28;20068;-73
2023/06/26 07:05:05;;;;;;;2.38;0.95;;;24.30;99.90;;;;;;5069491;28;20044;-74
2023/06/26 07:07:33;;;;;;;5.35;0.85;;;24.50;99.90;;;;;;5059023;28;20093;-73
2023/06/26 07:10:05;;;;;;;5.07;0.80;;;25.90;99.90;;;;;;5069918;28;20122;-73
2023/06/26 07:12:30;;;;;;;3.38;1.13;;;24.30;99.90;;;;;;5073815;28;20821;-74
2023/06/26 07:14:56;;;;;;;6.85;1.20;;;24.00;99.90;;;;;;5072783;28;20043;-74
2023/06/26 07:17:22;;;;;;;7.93;1.02;;;26.00;99.90;;;;;;5088208;28;20036;-74
2023/06/26 07:19:48;;;;;;;6.38;1.52;;;23.90;99.90;;;;;;5093354;28;20039;-73
2023/06/26 07:22:14;;;;;;;8.43;1.48;;;23.80;99.90;;;;;;5076502;28;20055;-73
2023/06/26 07:24:39;;;;;;;4.63;0.88;;;25.30;99.90;;;;;;5053513;28;20051;-74
2023/06/26 07:27:05;;;;;;;5.22;0.80;;;23.50;99.90;;;;;;5052842;28;20032;-72
2023/06/26 07:29:31;;;;;;;5.28;1.15;;;24.80;99.90;;;;;;5074331;28;20404;-74
2023/06/26 07:31:56;;;;;;;7.40;1.20;;;24.60;99.90;;;;;;5074267;28;20076;-73
2023/06/26 07:34:22;;;;;;;5.43;0.90;;;24.50;99.90;;;;;;5056574;28;20047;-74
2023/06/26 07:36:47;;;;;;;7.60;1.65;;;23.70;99.90;;;;;;5079044;28;20040;-74
2023/06/26 07:39:13;;;;;;;4.63;1.00;;;23.90;99.90;;;;;;5077366;28;20036;-73
2023/06/26 07:41:38;;;;;;;3.38;0.70;;;24.40;99.90;;;;;;5079163;28;20075;-72
2023/06/26 07:44:04;;;;;;;6.20;0.77;;;24.50;99.90;;;;;;5057871;28;20520;-73
2023/06/26 07:46:30;;;;;;;5.28;0.98;;;23.50;99.90;;;;;;5075368;28;20040;-74
2023/06/26 07:48:55;;;;;;;4.38;0.90;;;23.40;99.90;;;;;;5075483;28;20051;-73
2023/06/26 07:51:21;;;;;;;4.05;0.80;;;24.50;99.90;;;;;;5067897;28;20057;-73
2023/06/26 07:53:47;;;;;;;6.25;1.40;;;23.40;99.90;;;;;;5047432;28;20041;-73
2023/06/26 07:56:12;;;;;;;3.05;0.90;;;23.30;99.90;;;;;;5064127;28;20048;-73
2023/06/26 07:58:38;;;;;;;2.17;0.95;;;24.90;99.90;;;;;;5063443;28;20041;-73
2023/06/26 08:01:03;;;;;;;4.20;1.10;;;23.50;99.90;;;;;;5046792;28;20037;-73
2023/06/26 08:03:29;;;;;;;4.35;1.10;;;23.30;99.90;;;;;;5064112;28;20056;-74
2023/06/26 08:05:54;;;;;;;3.03;1.08;;;23.50;99.90;;;;;;5063038;28;20036;-73
2023/06/26 08:08:20;;;;;;;5.20;0.82;;;23.70;99.90;;;;;;5067327;28;20055;-73
2023/06/26 08:10:46;;;;;;;4.40;1.00;;;23.40;99.90;;;;;;5059534;28;20394;-73
2023/06/26 08:13:11;;;;;;;7.68;1.02;;;23.80;99.90;;;;;;5077295;28;20043;-74
2023/06/26 08:15:37;;;;;;;4.20;1.33;;;23.60;99.90;;;;;;5068336;28;20567;-73
2023/06/26 08:18:02;;;;;;;5.47;1.17;;;23.80;99.90;;;;;;5071639;28;20048;-73
2023/06/26 08:20:28;;;;;;;8.18;1.58;;;23.60;99.90;;;;;;5070220;28;20036;-74
2023/06/26 08:22:54;;;;;;;3.22;1.10;;;23.70;99.90;;;;;;5073163;28;20383;-74
2023/06/26 08:25:20;;;;;;;7.93;1.95;;;25.30;99.90;;;;;;5064193;28;20048;-73
2023/06/26 08:27:46;;;;;;;4.25;1.38;;;24.80;99.90;;;;;;5068538;28;20040;-73
2023/06/26 08:30:13;;;;;;;3.60;1.08;;;23.20;99.90;;;;;;5067070;28;20039;-73
2023/06/26 08:32:39;;;;;;;5.63;1.00;;;23.30;99.90;;;;;;5067752;28;20055;-73
2023/06/26 08:35:06;;;;;;;7.40;1.27;;;23.30;99.90;;;;;;5072627;28;20056;-74
2023/06/26 08:37:32;;;;;;;3.03;1.10;;;23.60;99.90;;;;;;5068705;28;20513;-73
2023/06/26 08:40:00;;;;;;;4.72;1.02;;;24.70;99.90;;;;;;5063179;28;20048;-73
2023/06/26 08:42:26;;;;;;;6.13;1.70;;;23.50;99.90;;;;;;5068572;28;20127;-73
2023/06/26 08:44:52;;;;;;;3.22;1.10;;;24.80;99.90;;;;;;5064106;28;20081;-73
2023/06/26 08:47:18;;;;;;;6.38;1.40;;;25.10;99.90;;;;;;5063537;28;20062;-73
2023/06/26 08:49:56;;;;;;;5.55;1.40;;;23.00;99.90;;;;;;5064053;28;20478;-73
2023/06/26 08:52:30;;;;;;;5.93;1.50;;;24.90;99.90;;;;;;5082339;28;20055;-74
2023/06/26 08:54:57;;;;;;;;;;;23.40;99.90;;;;;;5077959;28;20525;-73
2023/06/26 08:57:25;;;;;;;5.47;1.45;;;23.40;99.90;;;;;;5075367;28;19924;-73
2023/06/26 08:59:51;;;;;;;9.57;1.40;;;24.80;99.90;;;;;;5073174;28;20040;-73
2023/06/26 09:02:16;;;;;;;6.63;1.70;;;23.30;99.90;;;;;;5086438;28;20071;-74
2023/06/26 09:04:42;;;;;;;8.90;1.83;;;23.30;99.90;;;;;;5086547;28;20059;-74
2023/06/26 09:07:08;;;;;;;5.47;2.03;;;23.30;99.90;;;;;;5087058;28;20052;-73
2023/06/26 09:09:33;;;;;;;4.43;1.35;;;23.20;99.90;;;;;;5092032;28;20039;-74
2023/06/26 09:12:00;;;;;;;4.63;1.50;;;23.40;99.90;;;;;;5081068;28;20044;-73
2023/06/26 09:14:26;;;;;;;5.82;1.42;;;25.00;99.90;;;;;;5092999;28;20040;-73
2023/06/26 09:16:52;;;;;;;4.97;1.80;;;23.30;99.90;;;;;;5078877;28;20040;-74
2023/06/26 09:19:18;;;;;;;6.55;1.90;;;23.30;99.90;;;;;;5078036;28;20032;-73
2023/06/26 09:21:43;;;;;;;4.82;1.63;;;23.90;99.90;;;;;;5078775;28;20032;-73
2023/06/26 09:24:10;;;;;;;5.25;1.40;;;23.30;99.90;;;;;;5076560;28;20410;-73
2023/06/26 09:26:37;;;;;;;4.55;1.50;;;23.00;99.90;;;;;;5061047;28;20040;-74
2023/06/26 09:29:04;;;;;;;4.05;1.25;;;23.40;99.90;;;;;;5077654;28;20834;-73
2023/06/26 09:31:29;;;;;;;3.88;1.38;;;24.30;99.90;;;;;;5081201;28;20036;-73
2023/06/26 09:33:59;;;;;;;4.82;2.22;;;23.40;99.90;;;;;;5075071;28;20595;-73
2023/06/26 09:36:28;;;;;;;4.30;1.38;;;23.60;99.90;;;;;;5087469;28;20036;-73
2023/06/26 09:38:54;;;;;;;5.78;1.63;;;23.40;99.90;;;;;;5057193;28;20594;-73
2023/06/26 09:41:20;;;;;;;5.38;1.15;;;23.30;99.90;;;;;;5077167;28;20043;-73
2023/06/26 09:43:51;;;;;;;7.15;1.60;;;23.80;99.90;;;;;;5087540;28;20063;-73
2023/06/26 09:46:23;;;;;;;5.15;1.48;;;23.40;99.90;;;;;;5072051;28;20126;-74
2023/06/26 09:49:04;;;;;;;7.05;2.55;;;23.80;99.90;;;;;;5092303;28;20115;-73
2023/06/26 09:51:34;;;;;;;3.80;1.58;;;23.60;99.90;;;;;;5075686;28;20052;-73
2023/06/26 09:54:00;;;;;;;9.38;1.70;;;23.40;99.90;;;;;;5077004;28;20035;-73
2023/06/26 09:56:27;;;;;;;3.30;1.45;;;23.00;99.90;;;;;;5075854;28;20162;-73
2023/06/26 09:58:57;;;;;;;5.70;1.67;;;23.60;99.90;;;;;;5079233;28;20051;-73
2023/06/26 10:01:25;;;;;;;3.83;1.30;;;23.40;99.90;;;;;;5076730;28;20574;-74
2023/06/26 10:03:51;;;;;;;5.63;1.80;;;23.70;99.90;;;;;;5081906;28;20135;-73
2023/06/26 10:06:22;;;;;;;3.90;1.38;;;23.30;99.90;;;;;;5087745;28;20105;-74
2023/06/26 10:08:48;;;;;;;4.88;1.85;;;24.50;99.90;;;;;;5076149;28;20044;-74
2023/06/26 10:11:18;;;;;;;6.05;1.50;;;23.30;99.90;;;;;;5065934;28;20249;-73
2023/06/26 10:13:47;;;;;;;6.25;1.88;;;23.50;99.90;;;;;;5064421;28;20043;-73
2023/06/26 10:16:17;;;;;;;5.68;1.30;;;25.00;99.90;;;;;;5087139;28;20044;-73
2023/06/26 10:18:44;;;;;;;5.78;1.30;;;23.70;99.90;;;;;;5071379;28;20815;-73
2023/06/26 10:21:12;;;;;;;4.45;1.58;;;23.90;99.90;;;;;;5285504;22;20067;-73
2023/06/26 10:23:41;;;;;;;6.75;1.10;;;23.90;99.90;;;;;;5052917;28;20440;-73
2023/06/26 10:26:08;;;;;;;4.57;1.60;;;23.90;99.90;;;;;;5064235;28;20390;-74
2023/06/26 10:28:35;;;;;;;5.75;1.25;;;23.80;99.90;;;;;;5049593;28;20040;-73
2023/06/26 10:31:02;;;;;;;6.28;1.30;;;23.50;99.90;;;;;;5053101;28;20055;-74
2023/06/26 10:33:29;;;;;;;8.98;1.42;;;24.60;99.90;;;;;;5051918;28;20492;-75
2023/06/26 10:36:13;;;;;;;7.10;1.48;;;23.40;99.90;;;;;;5026747;28;20120;-74
2023/06/26 10:39:17;;;;;;;14.00;1.73;;;23.50;99.90;;;;;;5057961;28;20442;-75
2023/06/26 10:41:43;;;;;;;10.80;2.40;;;24.70;99.90;;;;;;4963661;28;20285;-75
2023/06/26 10:44:10;;;;;;;6.47;1.80;;;23.50;99.90;;;;;;4956484;28;20501;-74
2023/06/26 10:46:53;;;;;;;11.10;1.30;;;23.40;99.90;;;;;;5002455;28;20077;-74
2023/06/26 10:49:27;;;;;;;9.55;1.70;;;23.60;99.90;;;;;;5074603;28;20608;-74
2023/06/26 10:51:54;;;;;;;;;;;23.70;99.90;;;;;;5063805;28;20499;-74
2023/06/26 10:54:20;;;;;;;8.27;1.27;;;25.00;99.90;;;;;;5055551;28;20776;-73
2023/06/26 10:56:54;;;;;;;4.32;0.98;;;23.80;99.90;;;;;;5053423;28;20044;-75
2023/06/26 10:59:21;;;;;;;8.10;1.50;;;24.10;99.90;;;;;;5064039;28;20072;-74
2023/06/26 11:02:00;;;;;;;12.75;1.77;;;23.90;99.90;;;;;;5058065;28;20068;-74
2023/06/26 11:05:19;;;;;;;7.28;1.35;;;23.90;99.90;;;;;;5069517;28;20045;-74
2023/06/26 11:08:02;;;;;;;4.10;1.30;;;23.90;99.90;;;;;;5039412;28;20116;-74
2023/06/26 11:10:28;;;;;;;7.10;1.33;;;23.90;99.90;;;;;;5040342;28;20037;-74
2023/06/26 11:12:57;;;;;;;8.05;1.33;;;23.70;99.90;;;;;;5054378;28;20101;-74
2023/06/26 11:15:26;;;;;;;4.57;0.75;;;23.60;99.90;;;;;;5052560;28;20056;-74
2023/06/26 11:17:52;;;;;;;5.30;0.82;;;24.80;99.90;;;;;;5046580;28;20049;-74
2023/06/26 11:20:17;;;;;;;5.90;1.35;;;23.70;99.90;;;;;;5059463;28;20041;-74
2023/06/26 11:22:43;;;;;;;6.28;0.90;;;24.40;99.90;;;;;;5064445;28;20534;-74
2023/06/26 11:25:10;;;;;;;7.40;1.08;;;24.80;99.90;;;;;;5058712;28;20049;-74
2023/06/26 11:27:43;;;;;;;4.55;0.40;;;23.60;99.90;;;;;;5058310;28;20538;-74
2023/06/26 11:30:11;;;;;;;13.40;1.23;;;24.70;99.90;;;;;;5063815;28;20044;-74
2023/06/26 11:32:38;;;;;;;14.15;1.42;;;23.70;99.90;;;;;;5050465;28;20052;-75
2023/06/26 11:35:07;;;;;;;3.20;0.73;;;24.00;99.90;;;;;;5061198;28;20040;-75
2023/06/26 11:37:33;;;;;;;5.13;0.90;;;23.90;99.90;;;;;;5050410;28;20431;-73
2023/06/26 11:39:59;;;;;;;7.25;0.80;;;24.00;99.90;;;;;;5060793;28;20040;-74
2023/06/26 11:42:25;;;;;;;5.10;0.70;;;24.80;99.90;;;;;;5050661;28;20056;-74
2023/06/26 11:44:51;;;;;;;16.48;3.35;;;23.70;99.90;;;;;;5054128;28;20036;-74
2023/06/26 11:47:20;;;;;;;7.80;1.00;;;23.70;99.90;;;;;;5065223;28;20051;-74
2023/06/26 11:49:49;;;;;;;10.18;1.10;;;23.70;99.90;;;;;;5068388;28;20076;-74
2023/06/26 11:52:16;;;;;;;31.85;2.13;;;23.50;99.90;;;;;;5058368;28;20498;-75
2023/06/26 11:54:42;;;;;;;7.40;0.95;;;25.30;99.90;;;;;;5057736;28;20494;-74
2023/06/26 11:57:13;;;;;;;15.40;2.47;;;23.90;99.90;;;;;;5054412;28;20048;-74
2023/06/26 11:59:39;;;;;;;10.02;1.10;;;23.60;99.90;;;;;;5060289;28;20040;-74
2023/06/26 12:02:10;;;;;;;6.43;1.35;;;23.30;99.90;;;;;;5045887;28;20461;-74
2023/06/26 12:04:38;;;;;;;9.63;1.80;;;23.40;99.90;;;;;;5055539;28;20036;-74
2023/06/26 12:07:07;;;;;;;5.82;1.00;;;23.60;99.90;;;;;;5056019;28;20067;-75
2023/06/26 12:09:34;;;;;;;4.63;0.77;;;23.80;99.90;;;;;;5059807;28;20040;-74
2023/06/26 12:12:00;;;;;;;10.68;1.20;;;23.80;99.90;;;;;;5052790;28;20402;-74
2023/06/26 12:14:28;;;;;;;4.55;0.95;;;23.80;99.90;;;;;;5062741;28;20048;-74
2023/06/26 12:16:54;;;;;;;4.68;0.52;;;23.50;99.90;;;;;;5061131;28;20481;-74
2023/06/26 12:19:25;;;;;;;7.63;0.70;;;23.50;99.90;;;;;;5068244;28;20531;-74
2023/06/26 12:21:52;;;;;;;5.18;0.70;;;23.40;99.90;;;;;;5066379;28;20414;-74
2023/06/26 12:24:22;;;;;;;3.45;0.50;;;25.40;99.90;;;;;;5058711;28;20056;-74
2023/06/26 12:26:53;;;;;;;7.65;0.82;;;23.50;99.90;;;;;;5059485;28;20043;-73
2023/06/26 12:29:21;;;;;;;2.30;0.70;;;23.50;99.90;;;;;;5048027;28;20056;-74
2023/06/26 12:31:51;;;;;;;8.13;1.08;;;24.80;99.90;;;;;;5058870;28;20398;-74
2023/06/26 12:34:20;;;;;;;8.00;0.88;;;23.60;99.90;;;;;;5068629;28;20040;-74
2023/06/26 12:36:48;;;;;;;5.13;0.77;;;23.70;99.90;;;;;;5057085;28;20098;-74
2023/06/26 12:39:19;;;;;;;4.00;0.77;;;24.10;99.90;;;;;;5062067;28;20499;-74
2023/06/26 12:42:01;;;;;;;5.18;0.75;;;23.70;99.90;;;;;;5060802;28;20040;-75
2023/06/26 12:44:28;;;;;;;2.60;0.50;;;23.50;99.90;;;;;;5069451;28;20086;-74